Airport Name : Aracatuba

Other Name : Aracatuba

ICAO : SBAU

IATA : ARU

FAA :

Latitude : -21.141342

Longitude : -50.424722

Country : Brazil

Local Date and Time : 07 Dec 2022 17:42

 

TAF (Terminal Aerodrome Forecast)

 

METAR (METeorological Aerodrome Report)

SBAU 071900Z 36005KT 9999 SCT030 SCT070 29/20 Q1009

SBAU 071800Z 07005KT 9999 -RA BKN025 SCT070 29/21 Q1011

To Charter a Jet Click here.